sensor_id;sensor_type;location;lat;lon;timestamp;P1;durP1;ratioP1;P2;durP2;ratioP2
70761;SDS011;58360;0.000;0.000;2023-06-10T00:01:24;10.32;;;6.70;;
70761;SDS011;58360;0.000;0.000;2023-06-10T00:03:50;9.80;;;6.45;;
70761;SDS011;58360;0.000;0.000;2023-06-10T00:06:17;9.88;;;6.45;;
70761;SDS011;58360;0.000;0.000;2023-06-10T00:08:43;16.05;;;6.75;;
70761;SDS011;58360;0.000;0.000;2023-06-10T00:11:08;10.43;;;5.90;;
70761;SDS011;58360;0.000;0.000;2023-06-10T00:13:35;12.38;;;6.70;;
70761;SDS011;58360;0.000;0.000;2023-06-10T00:16:02;9.23;;;6.32;;
70761;SDS011;58360;0.000;0.000;2023-06-10T00:18:28;9.25;;;6.47;;
70761;SDS011;58360;0.000;0.000;2023-06-10T00:20:56;12.40;;;6.72;;
70761;SDS011;58360;0.000;0.000;2023-06-10T00:23:28;12.07;;;6.45;;
70761;SDS011;58360;0.000;0.000;2023-06-10T00:25:56;8.93;;;6.38;;
70761;SDS011;58360;0.000;0.000;2023-06-10T00:28:23;12.90;;;6.65;;
70761;SDS011;58360;0.000;0.000;2023-06-10T00:30:48;9.90;;;6.38;;
70761;SDS011;58360;0.000;0.000;2023-06-10T00:33:14;10.07;;;6.90;;
70761;SDS011;58360;0.000;0.000;2023-06-10T00:35:42;12.15;;;6.97;;
70761;SDS011;58360;0.000;0.000;2023-06-10T00:38:07;9.13;;;6.47;;
70761;SDS011;58360;0.000;0.000;2023-06-10T00:40:35;9.07;;;6.35;;
70761;SDS011;58360;0.000;0.000;2023-06-10T00:43:04;9.43;;;6.45;;
70761;SDS011;58360;0.000;0.000;2023-06-10T00:45:30;10.55;;;6.43;;
70761;SDS011;58360;0.000;0.000;2023-06-10T00:47:56;8.45;;;5.97;;
70761;SDS011;58360;0.000;0.000;2023-06-10T00:50:22;9.43;;;6.30;;
70761;SDS011;58360;0.000;0.000;2023-06-10T00:52:48;12.23;;;6.53;;
70761;SDS011;58360;0.000;0.000;2023-06-10T00:55:16;12.60;;;6.90;;
70761;SDS011;58360;0.000;0.000;2023-06-10T00:57:43;11.35;;;6.53;;
70761;SDS011;58360;0.000;0.000;2023-06-10T01:00:11;14.98;;;6.95;;
70761;SDS011;58360;0.000;0.000;2023-06-10T01:02:37;10.10;;;6.50;;
70761;SDS011;58360;0.000;0.000;2023-06-10T01:05:03;9.77;;;6.47;;
70761;SDS011;58360;0.000;0.000;2023-06-10T01:07:43;11.20;;;6.47;;
70761;SDS011;58360;0.000;0.000;2023-06-10T01:10:34;13.23;;;7.10;;
70761;SDS011;58360;0.000;0.000;2023-06-10T01:13:12;9.93;;;6.55;;
70761;SDS011;58360;0.000;0.000;2023-06-10T01:15:39;10.55;;;7.28;;
70761;SDS011;58360;0.000;0.000;2023-06-10T01:18:06;11.95;;;7.57;;
70761;SDS011;58360;0.000;0.000;2023-06-10T01:20:43;12.98;;;6.93;;
70761;SDS011;58360;0.000;0.000;2023-06-10T01:23:11;10.63;;;7.00;;
70761;SDS011;58360;0.000;0.000;2023-06-10T01:25:37;10.07;;;6.75;;
70761;SDS011;58360;0.000;0.000;2023-06-10T01:28:17;11.52;;;6.93;;
70761;SDS011;58360;0.000;0.000;2023-06-10T01:33:35;11.55;;;7.05;;
70761;SDS011;58360;0.000;0.000;2023-06-10T01:36:04;11.97;;;7.10;;
70761;SDS011;58360;0.000;0.000;2023-06-10T01:38:31;9.88;;;6.95;;
70761;SDS011;58360;0.000;0.000;2023-06-10T01:41:01;10.02;;;7.20;;
70761;SDS011;58360;0.000;0.000;2023-06-10T01:43:31;10.38;;;7.25;;
70761;SDS011;58360;0.000;0.000;2023-06-10T01:45:58;13.02;;;7.43;;
70761;SDS011;58360;0.000;0.000;2023-06-10T01:48:24;9.85;;;6.97;;
70761;SDS011;58360;0.000;0.000;2023-06-10T01:50:49;12.93;;;7.78;;
70761;SDS011;58360;0.000;0.000;2023-06-10T01:53:15;9.95;;;7.32;;
70761;SDS011;58360;0.000;0.000;2023-06-10T01:55:41;11.32;;;7.03;;
70761;SDS011;58360;0.000;0.000;2023-06-10T01:58:06;11.50;;;7.20;;
70761;SDS011;58360;0.000;0.000;2023-06-10T02:00:32;11.88;;;7.95;;
70761;SDS011;58360;0.000;0.000;2023-06-10T02:02:57;12.23;;;6.80;;
70761;SDS011;58360;0.000;0.000;2023-06-10T02:05:23;10.80;;;7.30;;
70761;SDS011;58360;0.000;0.000;2023-06-10T02:07:49;12.75;;;7.40;;
70761;SDS011;58360;0.000;0.000;2023-06-10T02:10:16;10.93;;;6.78;;
70761;SDS011;58360;0.000;0.000;2023-06-10T02:12:41;10.35;;;7.32;;
70761;SDS011;58360;0.000;0.000;2023-06-10T02:15:07;11.32;;;7.63;;
70761;SDS011;58360;0.000;0.000;2023-06-10T02:17:33;10.93;;;7.95;;
70761;SDS011;58360;0.000;0.000;2023-06-10T02:19:58;11.90;;;7.22;;
70761;SDS011;58360;0.000;0.000;2023-06-10T02:22:25;11.63;;;7.28;;
70761;SDS011;58360;0.000;0.000;2023-06-10T02:24:50;11.57;;;7.70;;
70761;SDS011;58360;0.000;0.000;2023-06-10T02:27:18;9.93;;;7.18;;
70761;SDS011;58360;0.000;0.000;2023-06-10T02:29:43;11.07;;;7.70;;
70761;SDS011;58360;0.000;0.000;2023-06-10T02:32:09;11.63;;;8.25;;
70761;SDS011;58360;0.000;0.000;2023-06-10T02:34:35;15.00;;;7.70;;
70761;SDS011;58360;0.000;0.000;2023-06-10T02:37:01;10.52;;;7.93;;
70761;SDS011;58360;0.000;0.000;2023-06-10T02:39:27;10.05;;;7.47;;
70761;SDS011;58360;0.000;0.000;2023-06-10T02:41:53;10.65;;;7.63;;
70761;SDS011;58360;0.000;0.000;2023-06-10T02:44:19;10.07;;;7.20;;
70761;SDS011;58360;0.000;0.000;2023-06-10T02:46:45;12.70;;;7.75;;
70761;SDS011;58360;0.000;0.000;2023-06-10T02:49:11;12.68;;;7.47;;
70761;SDS011;58360;0.000;0.000;2023-06-10T02:51:37;12.73;;;7.38;;
70761;SDS011;58360;0.000;0.000;2023-06-10T02:54:03;9.60;;;7.22;;
70761;SDS011;58360;0.000;0.000;2023-06-10T02:56:30;10.02;;;7.82;;
70761;SDS011;58360;0.000;0.000;2023-06-10T02:58:56;16.15;;;8.38;;
70761;SDS011;58360;0.000;0.000;2023-06-10T03:01:22;13.18;;;8.23;;
70761;SDS011;58360;0.000;0.000;2023-06-10T03:03:48;15.20;;;8.50;;
70761;SDS011;58360;0.000;0.000;2023-06-10T03:06:15;12.27;;;8.75;;
70761;SDS011;58360;0.000;0.000;2023-06-10T03:08:41;13.52;;;8.48;;
70761;SDS011;58360;0.000;0.000;2023-06-10T03:11:07;11.80;;;8.13;;
70761;SDS011;58360;0.000;0.000;2023-06-10T03:13:33;13.27;;;8.93;;
70761;SDS011;58360;0.000;0.000;2023-06-10T03:15:59;14.05;;;8.73;;
70761;SDS011;58360;0.000;0.000;2023-06-10T03:18:25;13.32;;;8.77;;
70761;SDS011;58360;0.000;0.000;2023-06-10T03:20:52;15.25;;;8.45;;
70761;SDS011;58360;0.000;0.000;2023-06-10T03:23:18;10.68;;;8.52;;
70761;SDS011;58360;0.000;0.000;2023-06-10T03:25:44;16.05;;;9.50;;
70761;SDS011;58360;0.000;0.000;2023-06-10T03:28:10;12.77;;;9.13;;
70761;SDS011;58360;0.000;0.000;2023-06-10T03:30:36;13.40;;;8.77;;
70761;SDS011;58360;0.000;0.000;2023-06-10T03:33:02;16.75;;;9.27;;
70761;SDS011;58360;0.000;0.000;2023-06-10T03:35:27;10.93;;;8.40;;
70761;SDS011;58360;0.000;0.000;2023-06-10T03:37:54;12.18;;;8.27;;
70761;SDS011;58360;0.000;0.000;2023-06-10T03:40:20;13.00;;;9.52;;
70761;SDS011;58360;0.000;0.000;2023-06-10T03:42:45;14.07;;;9.55;;
70761;SDS011;58360;0.000;0.000;2023-06-10T03:45:11;12.32;;;8.80;;
70761;SDS011;58360;0.000;0.000;2023-06-10T03:47:37;12.45;;;8.80;;
70761;SDS011;58360;0.000;0.000;2023-06-10T03:50:05;14.57;;;9.05;;
70761;SDS011;58360;0.000;0.000;2023-06-10T03:52:33;12.40;;;9.07;;
70761;SDS011;58360;0.000;0.000;2023-06-10T03:54:58;10.48;;;8.57;;
70761;SDS011;58360;0.000;0.000;2023-06-10T03:57:24;14.35;;;8.95;;
70761;SDS011;58360;0.000;0.000;2023-06-10T03:59:50;12.73;;;9.18;;
70761;SDS011;58360;0.000;0.000;2023-06-10T04:02:16;13.40;;;9.60;;
70761;SDS011;58360;0.000;0.000;2023-06-10T04:04:42;13.60;;;9.15;;
70761;SDS011;58360;0.000;0.000;2023-06-10T04:07:08;11.93;;;9.07;;
70761;SDS011;58360;0.000;0.000;2023-06-10T04:09:34;15.02;;;10.23;;
70761;SDS011;58360;0.000;0.000;2023-06-10T04:12:00;14.00;;;9.40;;
70761;SDS011;58360;0.000;0.000;2023-06-10T04:14:27;16.48;;;10.27;;
70761;SDS011;58360;0.000;0.000;2023-06-10T04:16:53;15.48;;;9.93;;
70761;SDS011;58360;0.000;0.000;2023-06-10T04:19:19;12.32;;;9.57;;
70761;SDS011;58360;0.000;0.000;2023-06-10T04:21:46;13.25;;;9.43;;
70761;SDS011;58360;0.000;0.000;2023-06-10T04:24:11;14.88;;;8.80;;
70761;SDS011;58360;0.000;0.000;2023-06-10T04:26:37;13.95;;;8.82;;
70761;SDS011;58360;0.000;0.000;2023-06-10T04:29:03;12.82;;;9.48;;
70761;SDS011;58360;0.000;0.000;2023-06-10T04:31:29;11.52;;;9.55;;
70761;SDS011;58360;0.000;0.000;2023-06-10T04:33:54;17.23;;;9.85;;
70761;SDS011;58360;0.000;0.000;2023-06-10T04:36:20;13.02;;;9.25;;
70761;SDS011;58360;0.000;0.000;2023-06-10T04:38:46;11.00;;;8.95;;
70761;SDS011;58360;0.000;0.000;2023-06-10T04:41:12;15.30;;;9.68;;
70761;SDS011;58360;0.000;0.000;2023-06-10T04:43:38;14.00;;;10.00;;
70761;SDS011;58360;0.000;0.000;2023-06-10T04:46:03;14.90;;;9.93;;
70761;SDS011;58360;0.000;0.000;2023-06-10T04:48:29;15.13;;;9.98;;
70761;SDS011;58360;0.000;0.000;2023-06-10T04:50:55;14.80;;;10.80;;
70761;SDS011;58360;0.000;0.000;2023-06-10T04:53:21;15.13;;;10.10;;
70761;SDS011;58360;0.000;0.000;2023-06-10T04:55:47;15.18;;;9.38;;
70761;SDS011;58360;0.000;0.000;2023-06-10T04:58:13;17.30;;;10.45;;
70761;SDS011;58360;0.000;0.000;2023-06-10T05:00:39;13.13;;;10.07;;
70761;SDS011;58360;0.000;0.000;2023-06-10T05:03:05;14.38;;;10.48;;
70761;SDS011;58360;0.000;0.000;2023-06-10T05:05:30;14.90;;;10.07;;
70761;SDS011;58360;0.000;0.000;2023-06-10T05:07:56;13.70;;;9.20;;
70761;SDS011;58360;0.000;0.000;2023-06-10T05:10:22;14.23;;;9.55;;
70761;SDS011;58360;0.000;0.000;2023-06-10T05:12:47;11.50;;;9.25;;
70761;SDS011;58360;0.000;0.000;2023-06-10T05:15:13;23.35;;;9.75;;
70761;SDS011;58360;0.000;0.000;2023-06-10T05:17:39;15.80;;;9.27;;
70761;SDS011;58360;0.000;0.000;2023-06-10T05:20:05;12.75;;;9.82;;
70761;SDS011;58360;0.000;0.000;2023-06-10T05:22:31;21.20;;;9.75;;
70761;SDS011;58360;0.000;0.000;2023-06-10T05:24:57;13.65;;;9.38;;
70761;SDS011;58360;0.000;0.000;2023-06-10T05:27:23;11.27;;;9.02;;
70761;SDS011;58360;0.000;0.000;2023-06-10T05:29:49;15.25;;;10.38;;
70761;SDS011;58360;0.000;0.000;2023-06-10T05:32:16;14.68;;;10.18;;
70761;SDS011;58360;0.000;0.000;2023-06-10T05:34:42;15.10;;;9.63;;
70761;SDS011;58360;0.000;0.000;2023-06-10T05:37:08;14.27;;;9.23;;
70761;SDS011;58360;0.000;0.000;2023-06-10T05:39:35;13.15;;;9.23;;
70761;SDS011;58360;0.000;0.000;2023-06-10T05:42:07;13.67;;;9.07;;
70761;SDS011;58360;0.000;0.000;2023-06-10T05:44:33;16.98;;;10.30;;
70761;SDS011;58360;0.000;0.000;2023-06-10T05:46:59;14.80;;;10.63;;
70761;SDS011;58360;0.000;0.000;2023-06-10T05:49:25;14.13;;;9.27;;
70761;SDS011;58360;0.000;0.000;2023-06-10T05:51:51;15.73;;;10.18;;
70761;SDS011;58360;0.000;0.000;2023-06-10T05:54:22;13.38;;;9.80;;
70761;SDS011;58360;0.000;0.000;2023-06-10T05:56:48;17.50;;;10.05;;
70761;SDS011;58360;0.000;0.000;2023-06-10T05:59:13;16.30;;;10.18;;
70761;SDS011;58360;0.000;0.000;2023-06-10T06:01:39;21.60;;;10.13;;
70761;SDS011;58360;0.000;0.000;2023-06-10T06:04:05;23.92;;;12.23;;
70761;SDS011;58360;0.000;0.000;2023-06-10T06:06:30;19.15;;;10.52;;
70761;SDS011;58360;0.000;0.000;2023-06-10T06:08:56;22.15;;;10.98;;
70761;SDS011;58360;0.000;0.000;2023-06-10T06:11:22;16.98;;;10.65;;
70761;SDS011;58360;0.000;0.000;2023-06-10T06:13:47;16.88;;;10.55;;
70761;SDS011;58360;0.000;0.000;2023-06-10T06:16:13;18.08;;;11.43;;
70761;SDS011;58360;0.000;0.000;2023-06-10T06:18:39;15.35;;;9.68;;
70761;SDS011;58360;0.000;0.000;2023-06-10T06:21:04;12.40;;;8.95;;
70761;SDS011;58360;0.000;0.000;2023-06-10T06:23:30;14.98;;;8.98;;
70761;SDS011;58360;0.000;0.000;2023-06-10T06:25:56;16.17;;;9.35;;
70761;SDS011;58360;0.000;0.000;2023-06-10T06:28:21;14.82;;;9.27;;
70761;SDS011;58360;0.000;0.000;2023-06-10T06:30:47;12.57;;;8.90;;
70761;SDS011;58360;0.000;0.000;2023-06-10T06:33:13;13.50;;;9.15;;
70761;SDS011;58360;0.000;0.000;2023-06-10T06:35:38;13.63;;;8.40;;
70761;SDS011;58360;0.000;0.000;2023-06-10T06:38:05;12.70;;;8.85;;
70761;SDS011;58360;0.000;0.000;2023-06-10T06:40:30;12.48;;;8.75;;
70761;SDS011;58360;0.000;0.000;2023-06-10T06:42:56;11.23;;;8.13;;
70761;SDS011;58360;0.000;0.000;2023-06-10T06:45:22;12.50;;;8.30;;
70761;SDS011;58360;0.000;0.000;2023-06-10T06:47:47;16.50;;;8.43;;
70761;SDS011;58360;0.000;0.000;2023-06-10T06:50:13;11.25;;;7.95;;
70761;SDS011;58360;0.000;0.000;2023-06-10T06:52:39;11.15;;;8.02;;
70761;SDS011;58360;0.000;0.000;2023-06-10T06:55:05;14.90;;;7.53;;
70761;SDS011;58360;0.000;0.000;2023-06-10T06:57:31;13.70;;;7.15;;
70761;SDS011;58360;0.000;0.000;2023-06-10T06:59:57;11.35;;;7.40;;
70761;SDS011;58360;0.000;0.000;2023-06-10T07:02:22;14.18;;;7.57;;
70761;SDS011;58360;0.000;0.000;2023-06-10T07:04:48;11.43;;;7.43;;
70761;SDS011;58360;0.000;0.000;2023-06-10T07:07:14;15.95;;;7.05;;
70761;SDS011;58360;0.000;0.000;2023-06-10T07:09:41;12.05;;;7.40;;
70761;SDS011;58360;0.000;0.000;2023-06-10T07:12:06;11.65;;;6.90;;
70761;SDS011;58360;0.000;0.000;2023-06-10T07:14:32;12.02;;;6.63;;
70761;SDS011;58360;0.000;0.000;2023-06-10T07:16:58;15.60;;;6.70;;
70761;SDS011;58360;0.000;0.000;2023-06-10T07:19:24;9.63;;;6.38;;
70761;SDS011;58360;0.000;0.000;2023-06-10T07:21:49;13.93;;;7.03;;
70761;SDS011;58360;0.000;0.000;2023-06-10T07:24:15;10.93;;;6.43;;
70761;SDS011;58360;0.000;0.000;2023-06-10T07:26:41;19.63;;;7.15;;
70761;SDS011;58360;0.000;0.000;2023-06-10T07:29:06;16.55;;;6.70;;
70761;SDS011;58360;0.000;0.000;2023-06-10T07:31:32;13.35;;;6.85;;
70761;SDS011;58360;0.000;0.000;2023-06-10T07:33:58;11.52;;;6.43;;
70761;SDS011;58360;0.000;0.000;2023-06-10T07:36:23;14.77;;;6.28;;
70761;SDS011;58360;0.000;0.000;2023-06-10T07:38:52;12.75;;;5.88;;
70761;SDS011;58360;0.000;0.000;2023-06-10T07:41:18;8.80;;;5.80;;
70761;SDS011;58360;0.000;0.000;2023-06-10T07:43:44;10.05;;;6.32;;
70761;SDS011;58360;0.000;0.000;2023-06-10T07:46:10;9.77;;;5.88;;
70761;SDS011;58360;0.000;0.000;2023-06-10T07:48:35;10.75;;;6.57;;
70761;SDS011;58360;0.000;0.000;2023-06-10T07:51:01;10.32;;;5.32;;
70761;SDS011;58360;0.000;0.000;2023-06-10T07:53:27;10.50;;;6.03;;
70761;SDS011;58360;0.000;0.000;2023-06-10T07:55:53;11.10;;;6.25;;
70761;SDS011;58360;0.000;0.000;2023-06-10T07:58:18;11.07;;;6.22;;
70761;SDS011;58360;0.000;0.000;2023-06-10T08:00:44;10.23;;;5.75;;
70761;SDS011;58360;0.000;0.000;2023-06-10T08:03:10;11.20;;;5.78;;
70761;SDS011;58360;0.000;0.000;2023-06-10T08:05:36;12.80;;;6.00;;
70761;SDS011;58360;0.000;0.000;2023-06-10T08:08:01;11.40;;;5.60;;
70761;SDS011;58360;0.000;0.000;2023-06-10T08:10:27;10.18;;;5.20;;
70761;SDS011;58360;0.000;0.000;2023-06-10T08:12:53;9.50;;;5.35;;
70761;SDS011;58360;0.000;0.000;2023-06-10T08:15:18;10.02;;;5.22;;
70761;SDS011;58360;0.000;0.000;2023-06-10T08:17:44;8.70;;;5.50;;
70761;SDS011;58360;0.000;0.000;2023-06-10T08:20:10;11.25;;;5.43;;
70761;SDS011;58360;0.000;0.000;2023-06-10T08:22:35;8.60;;;5.70;;
70761;SDS011;58360;0.000;0.000;2023-06-10T08:25:01;9.85;;;5.60;;
70761;SDS011;58360;0.000;0.000;2023-06-10T08:27:27;13.50;;;5.38;;
70761;SDS011;58360;0.000;0.000;2023-06-10T08:29:52;11.57;;;7.10;;
70761;SDS011;58360;0.000;0.000;2023-06-10T08:32:18;10.13;;;5.07;;
70761;SDS011;58360;0.000;0.000;2023-06-10T08:34:44;9.48;;;4.95;;
70761;SDS011;58360;0.000;0.000;2023-06-10T08:37:09;7.93;;;4.53;;
70761;SDS011;58360;0.000;0.000;2023-06-10T08:39:35;10.70;;;4.70;;
70761;SDS011;58360;0.000;0.000;2023-06-10T08:44:29;15.00;;;4.88;;
70761;SDS011;58360;0.000;0.000;2023-06-10T08:46:58;8.40;;;5.20;;
70761;SDS011;58360;0.000;0.000;2023-06-10T08:49:26;8.43;;;4.45;;
70761;SDS011;58360;0.000;0.000;2023-06-10T08:51:55;10.55;;;4.88;;
70761;SDS011;58360;0.000;0.000;2023-06-10T08:56:52;7.47;;;4.57;;
70761;SDS011;58360;0.000;0.000;2023-06-10T08:59:20;10.15;;;4.40;;
70761;SDS011;58360;0.000;0.000;2023-06-10T09:01:46;9.55;;;5.35;;
70761;SDS011;58360;0.000;0.000;2023-06-10T09:04:12;11.02;;;4.78;;
70761;SDS011;58360;0.000;0.000;2023-06-10T09:06:38;7.70;;;4.30;;
70761;SDS011;58360;0.000;0.000;2023-06-10T09:09:06;10.70;;;4.47;;
70761;SDS011;58360;0.000;0.000;2023-06-10T09:11:32;9.60;;;4.57;;
70761;SDS011;58360;0.000;0.000;2023-06-10T09:13:58;12.15;;;4.80;;
70761;SDS011;58360;0.000;0.000;2023-06-10T09:16:24;9.45;;;5.18;;
70761;SDS011;58360;0.000;0.000;2023-06-10T09:18:50;11.05;;;4.93;;
70761;SDS011;58360;0.000;0.000;2023-06-10T09:23:49;8.88;;;4.10;;
70761;SDS011;58360;0.000;0.000;2023-06-10T09:26:15;10.68;;;4.55;;
70761;SDS011;58360;0.000;0.000;2023-06-10T09:28:44;7.05;;;4.53;;
70761;SDS011;58360;0.000;0.000;2023-06-10T09:31:13;7.65;;;4.30;;
70761;SDS011;58360;0.000;0.000;2023-06-10T09:33:44;9.77;;;4.65;;
70761;SDS011;58360;0.000;0.000;2023-06-10T09:36:10;9.15;;;4.22;;
70761;SDS011;58360;0.000;0.000;2023-06-10T09:38:36;11.75;;;4.88;;
70761;SDS011;58360;0.000;0.000;2023-06-10T09:41:02;7.95;;;4.82;;
70761;SDS011;58360;0.000;0.000;2023-06-10T09:43:44;7.25;;;4.28;;
70761;SDS011;58360;0.000;0.000;2023-06-10T09:46:17;10.45;;;4.43;;
70761;SDS011;58360;0.000;0.000;2023-06-10T09:48:45;10.02;;;4.75;;
70761;SDS011;58360;0.000;0.000;2023-06-10T09:51:15;8.20;;;4.70;;
70761;SDS011;58360;0.000;0.000;2023-06-10T09:53:48;6.93;;;4.40;;
70761;SDS011;58360;0.000;0.000;2023-06-10T09:56:15;10.35;;;4.40;;
70761;SDS011;58360;0.000;0.000;2023-06-10T09:58:41;6.47;;;4.18;;
70761;SDS011;58360;0.000;0.000;2023-06-10T10:01:09;6.88;;;4.10;;
70761;SDS011;58360;0.000;0.000;2023-06-10T10:03:51;5.70;;;4.43;;
70761;SDS011;58360;0.000;0.000;2023-06-10T10:06:17;12.57;;;4.60;;
70761;SDS011;58360;0.000;0.000;2023-06-10T10:08:45;10.73;;;4.90;;
70761;SDS011;58360;0.000;0.000;2023-06-10T10:11:11;7.15;;;4.60;;
70761;SDS011;58360;0.000;0.000;2023-06-10T10:13:39;15.55;;;4.70;;
70761;SDS011;58360;0.000;0.000;2023-06-10T10:16:12;11.73;;;4.60;;
70761;SDS011;58360;0.000;0.000;2023-06-10T10:18:43;10.82;;;4.53;;
70761;SDS011;58360;0.000;0.000;2023-06-10T10:21:11;9.13;;;4.25;;
70761;SDS011;58360;0.000;0.000;2023-06-10T10:23:47;8.60;;;4.97;;
70761;SDS011;58360;0.000;0.000;2023-06-10T10:26:23;9.05;;;4.30;;
70761;SDS011;58360;0.000;0.000;2023-06-10T10:28:53;6.80;;;4.13;;
70761;SDS011;58360;0.000;0.000;2023-06-10T10:31:35;9.27;;;4.32;;
70761;SDS011;58360;0.000;0.000;2023-06-10T10:34:04;9.73;;;4.32;;
70761;SDS011;58360;0.000;0.000;2023-06-10T10:36:37;6.03;;;4.40;;
70761;SDS011;58360;0.000;0.000;2023-06-10T10:39:04;10.18;;;4.40;;
70761;SDS011;58360;0.000;0.000;2023-06-10T10:41:30;6.68;;;3.95;;
70761;SDS011;58360;0.000;0.000;2023-06-10T10:43:57;6.95;;;3.88;;
70761;SDS011;58360;0.000;0.000;2023-06-10T10:46:25;8.25;;;4.47;;
70761;SDS011;58360;0.000;0.000;2023-06-10T10:48:51;6.90;;;4.03;;
70761;SDS011;58360;0.000;0.000;2023-06-10T10:51:18;12.70;;;4.18;;
70761;SDS011;58360;0.000;0.000;2023-06-10T10:53:44;6.78;;;3.95;;
70761;SDS011;58360;0.000;0.000;2023-06-10T10:56:38;8.45;;;4.10;;
70761;SDS011;58360;0.000;0.000;2023-06-10T10:59:04;6.43;;;4.20;;
70761;SDS011;58360;0.000;0.000;2023-06-10T11:01:40;6.75;;;4.20;;
70761;SDS011;58360;0.000;0.000;2023-06-10T11:04:10;7.07;;;4.05;;
70761;SDS011;58360;0.000;0.000;2023-06-10T11:06:36;11.83;;;4.87;;
70761;SDS011;58360;0.000;0.000;2023-06-10T11:09:02;10.05;;;4.20;;
70761;SDS011;58360;0.000;0.000;2023-06-10T11:11:52;14.00;;;4.70;;
70761;SDS011;58360;0.000;0.000;2023-06-10T11:14:28;7.77;;;4.27;;
70761;SDS011;58360;0.000;0.000;2023-06-10T11:16:58;11.10;;;4.05;;
70761;SDS011;58360;0.000;0.000;2023-06-10T11:19:37;11.80;;;4.75;;
70761;SDS011;58360;0.000;0.000;2023-06-10T11:22:15;9.60;;;4.70;;
70761;SDS011;58360;0.000;0.000;2023-06-10T11:24:46;7.80;;;4.43;;
70761;SDS011;58360;0.000;0.000;2023-06-10T11:27:21;15.27;;;4.90;;
70761;SDS011;58360;0.000;0.000;2023-06-10T11:32:25;8.88;;;4.63;;
70761;SDS011;58360;0.000;0.000;2023-06-10T11:34:56;8.02;;;4.28;;
70761;SDS011;58360;0.000;0.000;2023-06-10T11:37:22;10.55;;;4.68;;
70761;SDS011;58360;0.000;0.000;2023-06-10T11:39:51;11.77;;;4.72;;
70761;SDS011;58360;0.000;0.000;2023-06-10T11:42:21;9.55;;;4.70;;
70761;SDS011;58360;0.000;0.000;2023-06-10T11:44:48;9.70;;;4.55;;
70761;SDS011;58360;0.000;0.000;2023-06-10T11:47:15;15.20;;;4.38;;
70761;SDS011;58360;0.000;0.000;2023-06-10T11:49:40;9.13;;;4.20;;
70761;SDS011;58360;0.000;0.000;2023-06-10T11:52:06;12.23;;;5.13;;
70761;SDS011;58360;0.000;0.000;2023-06-10T11:54:34;9.93;;;5.05;;
70761;SDS011;58360;0.000;0.000;2023-06-10T11:56:59;10.07;;;4.47;;
70761;SDS011;58360;0.000;0.000;2023-06-10T11:59:29;8.18;;;4.28;;
70761;SDS011;58360;0.000;0.000;2023-06-10T12:01:55;8.07;;;4.22;;
70761;SDS011;58360;0.000;0.000;2023-06-10T12:04:21;7.53;;;4.25;;
70761;SDS011;58360;0.000;0.000;2023-06-10T12:06:51;7.97;;;4.20;;
70761;SDS011;58360;0.000;0.000;2023-06-10T12:11:51;7.78;;;4.15;;
70761;SDS011;58360;0.000;0.000;2023-06-10T12:19:56;12.40;;;4.13;;
70761;SDS011;58360;0.000;0.000;2023-06-10T12:22:23;6.95;;;4.22;;
70761;SDS011;58360;0.000;0.000;2023-06-10T12:24:59;10.05;;;4.35;;
70761;SDS011;58360;0.000;0.000;2023-06-10T12:27:27;8.20;;;4.43;;
70761;SDS011;58360;0.000;0.000;2023-06-10T12:29:54;12.82;;;4.68;;
70761;SDS011;58360;0.000;0.000;2023-06-10T12:32:20;5.90;;;3.80;;
70761;SDS011;58360;0.000;0.000;2023-06-10T12:35:01;7.53;;;4.85;;
70761;SDS011;58360;0.000;0.000;2023-06-10T12:37:29;7.57;;;4.57;;
70761;SDS011;58360;0.000;0.000;2023-06-10T12:39:58;7.13;;;4.28;;
70761;SDS011;58360;0.000;0.000;2023-06-10T12:42:26;6.35;;;4.50;;
70761;SDS011;58360;0.000;0.000;2023-06-10T12:44:55;8.82;;;4.82;;
70761;SDS011;58360;0.000;0.000;2023-06-10T12:49:58;13.70;;;4.75;;
70761;SDS011;58360;0.000;0.000;2023-06-10T12:52:26;9.57;;;4.40;;
70761;SDS011;58360;0.000;0.000;2023-06-10T12:54:52;11.90;;;4.53;;
70761;SDS011;58360;0.000;0.000;2023-06-10T12:57:19;9.98;;;4.63;;
70761;SDS011;58360;0.000;0.000;2023-06-10T12:59:46;8.95;;;4.78;;
70761;SDS011;58360;0.000;0.000;2023-06-10T13:02:17;8.52;;;4.93;;
70761;SDS011;58360;0.000;0.000;2023-06-10T13:04:44;8.00;;;3.92;;
70761;SDS011;58360;0.000;0.000;2023-06-10T13:07:10;8.35;;;4.47;;
70761;SDS011;58360;0.000;0.000;2023-06-10T13:09:36;6.95;;;4.20;;
70761;SDS011;58360;0.000;0.000;2023-06-10T13:12:02;7.93;;;4.53;;
70761;SDS011;58360;0.000;0.000;2023-06-10T13:14:29;12.98;;;4.88;;
70761;SDS011;58360;0.000;0.000;2023-06-10T13:16:55;19.77;;;5.47;;
70761;SDS011;58360;0.000;0.000;2023-06-10T13:19:20;6.20;;;4.40;;
70761;SDS011;58360;0.000;0.000;2023-06-10T13:21:49;7.82;;;4.82;;
70761;SDS011;58360;0.000;0.000;2023-06-10T13:24:16;6.90;;;4.80;;
70761;SDS011;58360;0.000;0.000;2023-06-10T13:26:42;10.32;;;4.82;;
70761;SDS011;58360;0.000;0.000;2023-06-10T13:29:08;9.23;;;4.80;;
70761;SDS011;58360;0.000;0.000;2023-06-10T13:31:38;15.65;;;4.82;;
70761;SDS011;58360;0.000;0.000;2023-06-10T13:34:05;10.40;;;4.53;;
70761;SDS011;58360;0.000;0.000;2023-06-10T13:36:31;10.75;;;5.35;;
70761;SDS011;58360;0.000;0.000;2023-06-10T13:38:56;9.55;;;4.82;;
70761;SDS011;58360;0.000;0.000;2023-06-10T13:41:22;8.35;;;4.78;;
70761;SDS011;58360;0.000;0.000;2023-06-10T13:43:48;6.82;;;4.72;;
70761;SDS011;58360;0.000;0.000;2023-06-10T13:46:13;11.25;;;5.13;;
70761;SDS011;58360;0.000;0.000;2023-06-10T13:48:39;10.60;;;4.97;;
70761;SDS011;58360;0.000;0.000;2023-06-10T13:51:05;10.00;;;5.38;;
70761;SDS011;58360;0.000;0.000;2023-06-10T13:53:31;14.77;;;4.32;;
70761;SDS011;58360;0.000;0.000;2023-06-10T13:55:57;14.10;;;5.57;;
70761;SDS011;58360;0.000;0.000;2023-06-10T13:58:23;7.45;;;4.72;;
70761;SDS011;58360;0.000;0.000;2023-06-10T14:00:48;8.80;;;4.57;;
70761;SDS011;58360;0.000;0.000;2023-06-10T14:03:14;9.98;;;5.03;;
70761;SDS011;58360;0.000;0.000;2023-06-10T14:05:40;7.25;;;4.90;;
70761;SDS011;58360;0.000;0.000;2023-06-10T14:08:06;9.68;;;5.07;;
70761;SDS011;58360;0.000;0.000;2023-06-10T14:10:32;7.22;;;4.60;;
70761;SDS011;58360;0.000;0.000;2023-06-10T14:12:58;11.13;;;4.80;;
70761;SDS011;58360;0.000;0.000;2023-06-10T14:15:23;9.20;;;4.57;;
70761;SDS011;58360;0.000;0.000;2023-06-10T14:17:49;9.02;;;4.45;;
70761;SDS011;58360;0.000;0.000;2023-06-10T14:20:15;6.80;;;4.82;;
70761;SDS011;58360;0.000;0.000;2023-06-10T14:22:41;8.77;;;4.78;;
70761;SDS011;58360;0.000;0.000;2023-06-10T14:25:06;7.88;;;4.57;;
70761;SDS011;58360;0.000;0.000;2023-06-10T14:27:33;7.32;;;4.50;;
70761;SDS011;58360;0.000;0.000;2023-06-10T14:29:58;6.88;;;4.88;;
70761;SDS011;58360;0.000;0.000;2023-06-10T14:32:24;11.60;;;5.38;;
70761;SDS011;58360;0.000;0.000;2023-06-10T14:34:51;11.18;;;5.05;;
70761;SDS011;58360;0.000;0.000;2023-06-10T14:37:16;11.38;;;5.50;;
70761;SDS011;58360;0.000;0.000;2023-06-10T14:39:42;12.23;;;4.95;;
70761;SDS011;58360;0.000;0.000;2023-06-10T14:42:08;7.50;;;5.25;;
70761;SDS011;58360;0.000;0.000;2023-06-10T14:44:34;10.18;;;5.00;;
70761;SDS011;58360;0.000;0.000;2023-06-10T14:46:59;8.82;;;4.78;;
70761;SDS011;58360;0.000;0.000;2023-06-10T14:49:25;8.13;;;4.72;;
70761;SDS011;58360;0.000;0.000;2023-06-10T14:51:50;10.57;;;4.97;;
70761;SDS011;58360;0.000;0.000;2023-06-10T14:54:16;8.75;;;4.60;;
70761;SDS011;58360;0.000;0.000;2023-06-10T14:56:42;7.88;;;4.88;;
70761;SDS011;58360;0.000;0.000;2023-06-10T14:59:08;9.90;;;4.78;;
70761;SDS011;58360;0.000;0.000;2023-06-10T15:01:33;6.57;;;4.40;;
70761;SDS011;58360;0.000;0.000;2023-06-10T15:03:59;9.02;;;4.60;;
70761;SDS011;58360;0.000;0.000;2023-06-10T15:06:25;10.13;;;4.90;;
70761;SDS011;58360;0.000;0.000;2023-06-10T15:08:50;6.78;;;4.43;;
70761;SDS011;58360;0.000;0.000;2023-06-10T15:11:16;8.55;;;4.90;;
70761;SDS011;58360;0.000;0.000;2023-06-10T15:13:42;8.27;;;4.88;;